createdAt,value
2019-01-21T00:01:23.691Z,28.50
2019-01-21T00:03:51.526Z,25.88
2019-01-21T00:06:19.328Z,24.60
2019-01-21T00:08:47.109Z,22.02
2019-01-21T00:11:14.969Z,26.00
2019-01-21T00:13:42.731Z,25.82
2019-01-21T00:16:10.511Z,25.02
2019-01-21T00:19:34.943Z,24.25
2019-01-21T00:22:02.811Z,21.75
2019-01-21T00:24:30.673Z,25.97
2019-01-21T00:26:58.462Z,27.62
2019-01-21T00:29:26.255Z,33.10
2019-01-21T00:31:54.042Z,34.27
2019-01-21T00:34:21.776Z,26.70
2019-01-21T00:36:49.588Z,27.25
2019-01-21T00:39:17.399Z,29.00
2019-01-21T00:41:45.202Z,32.75
2019-01-21T00:44:13.009Z,28.80
2019-01-21T00:46:40.850Z,26.93
2019-01-21T00:49:08.653Z,28.83
2019-01-21T00:51:36.454Z,27.25
2019-01-21T00:54:04.228Z,29.85
2019-01-21T00:56:31.997Z,29.07
2019-01-21T00:58:59.841Z,26.17
2019-01-21T01:01:28.189Z,29.45
2019-01-21T01:03:56.083Z,28.98
2019-01-21T01:06:23.867Z,26.77
2019-01-21T01:08:51.723Z,27.98
2019-01-21T01:11:19.499Z,30.62
2019-01-21T01:13:47.263Z,29.18
2019-01-21T01:16:15.048Z,27.13
2019-01-21T01:18:42.943Z,28.50
2019-01-21T01:21:10.750Z,28.52
2019-01-21T01:23:38.603Z,33.48
2019-01-21T01:26:06.414Z,30.55
2019-01-21T01:28:34.318Z,30.12
2019-01-21T01:31:02.081Z,32.03
2019-01-21T01:33:29.863Z,32.10
2019-01-21T01:35:57.771Z,30.30
2019-01-21T01:38:25.635Z,25.10
2019-01-21T01:40:53.472Z,23.77
2019-01-21T01:43:21.211Z,24.67
2019-01-21T01:45:49.112Z,27.35
2019-01-21T01:48:16.962Z,26.35
2019-01-21T01:50:44.776Z,22.50
2019-01-21T01:53:14.496Z,33.42
2019-01-21T01:55:42.410Z,29.65
2019-01-21T01:58:10.200Z,27.02
2019-01-21T02:00:38.019Z,25.90
2019-01-21T02:03:07.230Z,29.70
2019-01-21T02:05:35.036Z,27.62
2019-01-21T02:08:03.061Z,26.25
2019-01-21T02:10:31.260Z,28.65
2019-01-21T02:12:59.034Z,27.82
2019-01-21T02:15:26.832Z,28.42
2019-01-21T02:17:54.649Z,27.27
2019-01-21T02:20:22.516Z,28.12
2019-01-21T02:22:54.068Z,28.12
2019-01-21T02:25:51.269Z,25.20
2019-01-21T02:28:37.264Z,26.37
2019-01-21T02:31:54.967Z,23.02
2019-01-21T02:35:14.019Z,25.30
2019-01-21T02:38:32.420Z,23.70
2019-01-21T02:41:49.200Z,25.68
2019-01-21T02:44:56.629Z,24.50
2019-01-21T02:48:29.145Z,22.80
2019-01-21T02:51:24.203Z,26.90
2019-01-21T02:54:40.345Z,25.77
2019-01-21T02:57:41.957Z,25.68
2019-01-21T03:01:17.395Z,25.00
2019-01-21T03:04:19.526Z,23.27
2019-01-21T03:07:19.724Z,22.67
2019-01-21T03:10:35.750Z,24.55
2019-01-21T03:14:01.810Z,25.92
2019-01-21T03:17:25.215Z,27.13
2019-01-21T03:20:22.070Z,26.57
2019-01-21T03:23:45.934Z,25.00
2019-01-21T03:27:39.285Z,25.27
2019-01-21T03:31:16.311Z,25.30
2019-01-21T03:34:29.134Z,24.27
2019-01-21T03:38:02.913Z,22.48
2019-01-21T03:41:13.069Z,27.15
2019-01-21T03:44:43.004Z,25.52
2019-01-21T03:48:03.127Z,25.70
2019-01-21T03:51:38.530Z,23.83
2019-01-21T03:54:23.510Z,22.95
2019-01-21T03:57:31.618Z,23.67
2019-01-21T04:00:34.755Z,22.42
2019-01-21T04:04:04.043Z,25.17
2019-01-21T04:07:21.373Z,23.07
2019-01-21T04:10:55.898Z,23.40
2019-01-21T04:14:10.236Z,22.77
2019-01-21T04:17:45.328Z,21.45
2019-01-21T04:20:55.160Z,25.30
2019-01-21T04:24:04.066Z,23.80
2019-01-21T04:27:11.461Z,19.57
2019-01-21T04:30:27.577Z,28.75
2019-01-21T04:33:59.782Z,25.57
2019-01-21T04:37:06.715Z,25.45
2019-01-21T04:40:09.625Z,21.68
2019-01-21T04:43:34.730Z,23.57
2019-01-21T04:46:57.195Z,21.80
2019-01-21T04:50:31.160Z,23.45
2019-01-21T04:53:50.275Z,21.95
2019-01-21T04:57:30.098Z,21.20
2019-01-21T05:01:00.833Z,20.37
2019-01-21T05:04:14.360Z,21.20
2019-01-21T05:08:07.363Z,19.20
2019-01-21T05:11:25.610Z,16.73
2019-01-21T05:14:45.491Z,20.02
2019-01-21T05:18:05.361Z,19.95
2019-01-21T05:21:34.995Z,20.77
2019-01-21T05:24:40.630Z,22.40
2019-01-21T05:28:06.709Z,31.82
2019-01-21T05:31:07.245Z,22.20
2019-01-21T05:34:28.190Z,25.20
2019-01-21T05:37:53.566Z,31.05
2019-01-21T05:41:07.404Z,25.32
2019-01-21T05:44:43.839Z,29.10
2019-01-21T05:47:52.666Z,30.77
2019-01-21T05:51:24.000Z,26.65
2019-01-21T05:54:21.891Z,27.60
2019-01-21T05:57:50.390Z,25.92
2019-01-21T06:01:05.411Z,29.85
2019-01-21T06:04:11.166Z,55.35
2019-01-21T06:07:33.768Z,44.80
2019-01-21T06:10:45.132Z,42.15
2019-01-21T06:14:03.953Z,41.98
2019-01-21T06:17:38.366Z,44.80
2019-01-21T06:21:13.092Z,46.90
2019-01-21T06:24:35.910Z,33.08
2019-01-21T06:28:41.272Z,29.77
2019-01-21T06:32:06.704Z,30.45
2019-01-21T06:35:31.621Z,24.23
2019-01-21T06:39:11.622Z,22.00
2019-01-21T06:42:24.687Z,24.87
2019-01-21T06:45:58.663Z,22.80
2019-01-21T06:49:38.819Z,22.52
2019-01-21T06:53:05.660Z,22.70
2019-01-21T06:56:19.529Z,23.20
2019-01-21T06:59:43.352Z,26.82
2019-01-21T07:03:16.108Z,26.90
2019-01-21T07:06:53.516Z,26.50
2019-01-21T07:10:39.520Z,29.32
2019-01-21T07:13:52.583Z,25.15
2019-01-21T07:17:20.874Z,24.85
2019-01-21T07:20:22.322Z,27.62
2019-01-21T07:23:53.819Z,21.68
2019-01-21T07:27:03.861Z,22.95
2019-01-21T07:30:01.476Z,23.92
2019-01-21T07:33:31.506Z,27.30
2019-01-21T07:37:16.161Z,23.20
2019-01-21T07:40:14.437Z,32.70
2019-01-21T07:43:42.036Z,26.75
2019-01-21T07:47:13.099Z,27.80
2019-01-21T07:50:39.852Z,32.90
2019-01-21T07:54:16.284Z,30.05
2019-01-21T07:57:57.084Z,27.77
2019-01-21T08:01:26.361Z,48.48
2019-01-21T08:04:40.312Z,32.03
2019-01-21T08:07:55.092Z,31.50
2019-01-21T08:11:19.913Z,30.60
2019-01-21T08:14:32.694Z,31.15
2019-01-21T08:17:53.902Z,55.92
2019-01-21T08:20:49.320Z,32.85
2019-01-21T08:24:05.763Z,29.00
2019-01-21T08:27:36.812Z,26.10
2019-01-21T08:30:45.926Z,24.45
2019-01-21T08:34:04.998Z,26.40
2019-01-21T08:37:16.136Z,24.00
2019-01-21T08:40:26.257Z,39.48
2019-01-21T08:43:52.136Z,30.35
2019-01-21T08:47:18.384Z,39.63
2019-01-21T08:50:15.025Z,34.80
2019-01-21T08:53:52.700Z,29.65
2019-01-21T08:57:32.758Z,23.35
2019-01-21T09:00:42.227Z,20.20
2019-01-21T09:03:49.863Z,23.25
2019-01-21T09:06:44.729Z,25.95
2019-01-21T09:10:25.314Z,31.60
2019-01-21T09:13:40.705Z,41.88
2019-01-21T09:17:15.839Z,96.73
2019-01-21T09:20:58.891Z,42.30
2019-01-21T09:24:27.160Z,34.00
2019-01-21T09:27:35.567Z,33.97
2019-01-21T09:31:19.032Z,31.57
2019-01-21T09:34:38.056Z,29.13
2019-01-21T09:37:54.485Z,55.60
2019-01-21T09:40:49.881Z,38.80
2019-01-21T09:44:25.797Z,28.00
2019-01-21T09:46:52.035Z,28.17
2019-01-21T09:49:18.334Z,29.37
2019-01-21T09:52:17.506Z,30.50
2019-01-21T09:54:51.371Z,31.90
2019-01-21T09:57:25.355Z,33.10
2019-01-21T09:59:58.724Z,31.37
2019-01-21T10:02:44.544Z,32.77
2019-01-21T10:05:16.066Z,30.87
2019-01-21T10:08:53.240Z,30.73
2019-01-21T10:12:12.848Z,30.30
2019-01-21T10:15:55.968Z,26.63
2019-01-21T10:19:35.081Z,25.97
2019-01-21T10:23:10.545Z,24.93
2019-01-21T10:26:30.818Z,25.17
2019-01-21T10:29:19.305Z,29.57
2019-01-21T10:32:49.001Z,31.93
2019-01-21T10:36:38.635Z,27.67
2019-01-21T10:40:00.961Z,28.67
2019-01-21T10:43:20.593Z,28.03
2019-01-21T10:47:16.770Z,23.53
2019-01-21T10:50:38.802Z,28.93
2019-01-21T10:53:57.448Z,31.73
2019-01-21T10:57:19.101Z,28.73
2019-01-21T11:00:54.989Z,25.87
2019-01-21T11:04:24.675Z,28.47
2019-01-21T11:07:50.335Z,23.17
2019-01-21T11:11:15.227Z,38.50
2019-01-21T11:14:47.710Z,27.57
2019-01-21T11:18:30.577Z,16.27
2019-01-21T11:21:42.819Z,16.17
2019-01-21T11:25:20.492Z,15.57
2019-01-21T11:28:45.885Z,16.87
2019-01-21T11:32:26.864Z,23.43
2019-01-21T11:36:00.517Z,19.47
2019-01-21T11:38:54.615Z,17.50
2019-01-21T11:41:46.636Z,16.83
2019-01-21T11:45:02.384Z,19.43
2019-01-21T11:48:28.043Z,19.70
2019-01-21T11:51:40.765Z,17.90
2019-01-21T11:55:11.794Z,17.07
2019-01-21T11:59:01.024Z,15.77
2019-01-21T12:02:38.087Z,15.73
2019-01-21T12:05:38.081Z,24.13
2019-01-21T12:08:36.067Z,19.10
2019-01-21T12:12:04.306Z,15.87
2019-01-21T12:15:33.779Z,15.07
2019-01-21T12:18:48.723Z,18.07
2019-01-21T12:22:01.076Z,20.13
2019-01-21T12:24:42.828Z,16.63
2019-01-21T12:27:48.837Z,17.40
2019-01-21T12:30:55.952Z,21.23
2019-01-21T12:34:28.120Z,17.43
2019-01-21T12:37:45.930Z,15.77
2019-01-21T12:41:02.458Z,16.47
2019-01-21T12:44:06.270Z,16.30
2019-01-21T12:46:47.101Z,18.23
2019-01-21T12:50:24.042Z,16.87
2019-01-21T12:53:40.881Z,18.30
2019-01-21T12:57:03.546Z,16.80
2019-01-21T13:00:07.074Z,16.03
2019-01-21T13:03:21.564Z,17.77
2019-01-21T13:06:26.545Z,18.00
2019-01-21T13:10:13.591Z,20.23
2019-01-21T13:13:53.182Z,23.70
2019-01-21T13:16:47.372Z,16.77
2019-01-21T13:20:18.670Z,14.47
2019-01-21T13:23:14.468Z,27.10
2019-01-21T13:26:31.469Z,17.73
2019-01-21T13:29:39.203Z,17.30
2019-01-21T13:33:00.553Z,16.00
2019-01-21T13:36:08.443Z,15.20
2019-01-21T13:39:26.919Z,16.40
2019-01-21T13:42:54.375Z,17.70
2019-01-21T13:46:14.822Z,16.80
2019-01-21T13:49:52.494Z,15.57
2019-01-21T13:53:26.760Z,17.73
2019-01-21T13:56:29.535Z,15.67
2019-01-21T13:59:59.924Z,19.20
2019-01-21T14:03:15.596Z,15.97
2019-01-21T14:06:28.142Z,23.20
2019-01-21T14:10:06.077Z,18.50
2019-01-21T14:13:34.662Z,16.97
2019-01-21T14:16:48.153Z,14.07
2019-01-21T14:20:35.040Z,17.43
2019-01-21T14:23:50.567Z,15.87
2019-01-21T14:27:17.020Z,17.33
2019-01-21T14:30:11.877Z,16.37
2019-01-21T14:33:18.511Z,17.83
2019-01-21T14:36:31.251Z,16.73
2019-01-21T14:39:42.128Z,19.90
2019-01-21T14:42:42.186Z,19.87
2019-01-21T14:46:04.456Z,21.13
2019-01-21T14:49:23.483Z,19.60
2019-01-21T14:52:45.968Z,17.10
2019-01-21T14:55:50.901Z,17.97
2019-01-21T14:59:03.154Z,17.50
2019-01-21T15:01:56.809Z,16.80
2019-01-21T15:05:16.606Z,17.53
2019-01-21T15:08:47.475Z,16.73
2019-01-21T15:11:45.785Z,23.37
2019-01-21T15:14:25.131Z,22.60
2019-01-21T15:18:12.320Z,19.33
2019-01-21T15:21:04.670Z,22.03
2019-01-21T15:24:38.091Z,19.77
2019-01-21T15:27:22.489Z,31.60
2019-01-21T15:31:02.760Z,23.57
2019-01-21T15:34:37.407Z,20.87
2019-01-21T15:37:46.481Z,22.20
2019-01-21T15:40:50.685Z,27.40
2019-01-21T15:43:45.992Z,21.00
2019-01-21T15:47:19.989Z,23.20
2019-01-21T15:51:05.079Z,25.00
2019-01-21T15:54:00.309Z,35.40
2019-01-21T15:57:59.630Z,28.00
2019-01-21T16:01:11.419Z,22.43
2019-01-21T16:04:46.371Z,22.30
2019-01-21T16:07:48.391Z,25.90
2019-01-21T16:11:13.271Z,23.12
2019-01-21T16:14:06.868Z,25.08
2019-01-21T16:17:51.432Z,23.85
2019-01-21T16:21:17.587Z,23.70
2019-01-21T16:24:29.308Z,29.18
2019-01-21T16:27:14.951Z,28.25
2019-01-21T16:30:04.925Z,24.10
2019-01-21T16:33:42.868Z,27.58
2019-01-21T16:36:51.538Z,29.40
2019-01-21T16:40:07.110Z,28.32
2019-01-21T16:42:35.936Z,34.73
2019-01-21T16:45:06.232Z,26.97
2019-01-21T16:47:53.606Z,27.93
2019-01-21T16:50:21.378Z,26.52
2019-01-21T16:52:49.156Z,33.98
2019-01-21T16:55:17.059Z,54.23
2019-01-21T16:57:44.979Z,43.63
2019-01-21T17:00:15.109Z,43.70
2019-01-21T17:02:42.895Z,37.33
2019-01-21T17:05:12.832Z,28.30
2019-01-21T17:07:40.689Z,27.25
2019-01-21T17:10:09.583Z,33.78
2019-01-21T17:12:37.483Z,38.70
2019-01-21T17:15:06.972Z,36.13
2019-01-21T17:17:34.787Z,40.28
2019-01-21T17:20:03.445Z,37.55
2019-01-21T17:22:31.302Z,36.28
2019-01-21T17:24:59.117Z,38.83
2019-01-21T17:27:27.040Z,44.10
2019-01-21T17:29:54.840Z,29.92
2019-01-21T17:32:23.281Z,36.08
2019-01-21T17:34:51.132Z,33.28
2019-01-21T17:37:19.024Z,42.03
2019-01-21T17:39:46.837Z,44.70
2019-01-21T17:42:16.305Z,39.73
2019-01-21T17:44:46.589Z,38.48
2019-01-21T17:47:19.513Z,31.12
2019-01-21T17:49:50.271Z,35.17
2019-01-21T17:52:18.192Z,26.90
2019-01-21T17:54:46.068Z,29.30
2019-01-21T17:57:26.500Z,29.10
2019-01-21T17:59:56.161Z,26.07
2019-01-21T18:02:23.940Z,28.32
2019-01-21T18:04:51.838Z,30.23
2019-01-21T18:07:19.651Z,29.80
2019-01-21T18:09:47.450Z,26.48
2019-01-21T18:12:15.306Z,38.15
2019-01-21T18:14:43.109Z,44.98
2019-01-21T18:17:10.955Z,28.35
2019-01-21T18:19:38.809Z,34.58
2019-01-21T18:22:06.634Z,35.65
2019-01-21T18:24:34.948Z,31.40
2019-01-21T18:27:02.855Z,29.92
2019-01-21T18:29:30.658Z,32.28
2019-01-21T18:31:58.505Z,36.10
2019-01-21T18:34:32.253Z,27.20
2019-01-21T18:37:00.077Z,28.25
2019-01-21T18:39:27.911Z,33.18
2019-01-21T18:41:55.716Z,27.13
2019-01-21T18:44:23.492Z,26.20
2019-01-21T18:46:51.342Z,39.48
2019-01-21T18:49:22.842Z,30.95
2019-01-21T18:51:48.853Z,34.70
2019-01-21T18:54:16.685Z,31.93
2019-01-21T18:56:44.498Z,32.95
2019-01-21T18:59:12.423Z,33.33
2019-01-21T19:01:40.229Z,31.07
2019-01-21T19:04:08.042Z,39.78
2019-01-21T19:06:35.846Z,58.98
2019-01-21T19:09:07.515Z,47.60
2019-01-21T19:11:35.377Z,37.70
2019-01-21T19:14:03.793Z,37.15
2019-01-21T19:16:31.614Z,39.75
2019-01-21T19:19:30.708Z,43.87
2019-01-21T19:21:58.940Z,38.48
2019-01-21T19:24:26.824Z,41.13
2019-01-21T19:26:54.600Z,39.48
2019-01-21T19:29:22.452Z,35.92
2019-01-21T19:31:50.255Z,36.85
2019-01-21T19:34:18.119Z,34.90
2019-01-21T19:36:45.989Z,35.08
2019-01-21T19:39:13.857Z,43.87
2019-01-21T19:41:44.026Z,39.78
2019-01-21T19:44:11.809Z,35.78
2019-01-21T19:46:44.133Z,38.20
2019-01-21T19:49:09.537Z,39.65
2019-01-21T19:51:38.546Z,41.75
2019-01-21T19:54:06.707Z,38.53
2019-01-21T19:56:34.504Z,36.42
2019-01-21T19:59:07.385Z,31.42
2019-01-21T20:01:36.376Z,30.08
2019-01-21T20:04:08.225Z,38.80
2019-01-21T20:06:36.019Z,41.68
2019-01-21T20:09:23.338Z,39.92
2019-01-21T20:11:52.135Z,37.90
2019-01-21T20:14:22.505Z,43.02
2019-01-21T20:16:50.756Z,45.40
2019-01-21T20:19:21.426Z,39.18
2019-01-21T20:21:51.718Z,43.05
2019-01-21T20:24:19.586Z,38.73
2019-01-21T20:26:47.345Z,37.53
2019-01-21T20:29:15.225Z,37.67
2019-01-21T20:31:43.139Z,36.73
2019-01-21T20:34:11.045Z,33.15
2019-01-21T20:36:38.829Z,30.82
2019-01-21T20:39:08.434Z,28.38
2019-01-21T20:41:36.389Z,37.40
2019-01-21T20:44:04.325Z,40.05
2019-01-21T20:46:32.154Z,33.90
2019-01-21T20:48:59.999Z,37.70
2019-01-21T20:51:27.818Z,34.23
2019-01-21T20:53:55.656Z,35.85
2019-01-21T20:56:23.455Z,34.63
2019-01-21T20:58:51.249Z,45.65
2019-01-21T21:01:33.940Z,41.35
2019-01-21T21:04:01.769Z,38.23
2019-01-21T21:06:29.610Z,41.85
2019-01-21T21:08:57.495Z,40.30
2019-01-21T21:11:25.290Z,41.92
2019-01-21T21:13:53.130Z,41.95
2019-01-21T21:16:20.943Z,40.20
2019-01-21T21:18:48.809Z,38.78
2019-01-21T21:21:16.627Z,41.65
2019-01-21T21:23:44.484Z,40.45
2019-01-21T21:26:12.374Z,52.25
2019-01-21T21:28:40.182Z,42.62
2019-01-21T21:31:08.012Z,38.80
2019-01-21T21:33:35.921Z,32.40
2019-01-21T21:36:03.871Z,34.48
2019-01-21T21:38:33.295Z,33.67
2019-01-21T21:41:01.633Z,28.50
2019-01-21T21:43:29.478Z,26.68
2019-01-21T21:45:57.321Z,35.98
2019-01-21T21:48:31.804Z,49.77
2019-01-21T21:50:59.883Z,64.20
2019-01-21T21:53:27.774Z,41.68
2019-01-21T21:55:55.639Z,46.02
2019-01-21T21:58:23.494Z,59.18
2019-01-21T22:01:11.142Z,41.42
2019-01-21T22:03:39.874Z,30.72
2019-01-21T22:06:07.701Z,45.00
2019-01-21T22:08:35.657Z,43.60
2019-01-21T22:11:03.517Z,40.38
2019-01-21T22:13:31.361Z,37.80
2019-01-21T22:15:59.298Z,46.30
2019-01-21T22:19:02.999Z,44.65
2019-01-21T22:21:30.856Z,36.83
2019-01-21T22:23:58.773Z,39.55
2019-01-21T22:26:26.948Z,36.77
2019-01-21T22:28:54.790Z,37.30
2019-01-21T22:31:22.515Z,38.10
2019-01-21T22:33:50.358Z,32.30
2019-01-21T22:36:18.113Z,38.42
2019-01-21T22:38:51.181Z,44.15
2019-01-21T22:41:18.983Z,32.67
2019-01-21T22:43:46.733Z,30.57
2019-01-21T22:46:14.480Z,28.38
2019-01-21T22:48:42.279Z,29.07
2019-01-21T22:51:10.074Z,27.95
2019-01-21T22:53:38.404Z,25.50
2019-01-21T22:56:06.193Z,29.25
2019-01-21T22:58:34.066Z,33.30
2019-01-21T23:01:16.071Z,33.23
2019-01-21T23:03:43.939Z,27.87
2019-01-21T23:06:11.699Z,26.33
2019-01-21T23:08:39.656Z,26.97
2019-01-21T23:11:07.492Z,27.95
2019-01-21T23:13:35.308Z,30.72
2019-01-21T23:16:03.520Z,44.67
2019-01-21T23:18:32.013Z,27.73
2019-01-21T23:20:59.808Z,28.52
2019-01-21T23:23:27.600Z,28.20
2019-01-21T23:25:55.406Z,25.20
2019-01-21T23:28:23.283Z,25.72
2019-01-21T23:30:51.090Z,25.88
2019-01-21T23:33:19.495Z,28.55
2019-01-21T23:35:48.935Z,22.75
2019-01-21T23:38:31.892Z,24.43
2019-01-21T23:40:59.694Z,26.95
2019-01-21T23:43:27.492Z,27.10
2019-01-21T23:45:55.279Z,28.20
2019-01-21T23:48:23.511Z,30.20
2019-01-21T23:50:51.285Z,27.42
2019-01-21T23:53:19.094Z,49.25
2019-01-21T23:55:46.861Z,34.35
2019-01-21T23:58:29.719Z,29.40
